Time;durP1;ratioP1;P1;durP2;ratioP2;P2;SDS_P1;SDS_P2;PMS_P1;PMS_P2;Temp;Humidity;BMP_temperature;BMP_pressure;BME280_temperature;BME280_humidity;BME280_pressure;Samples;Min_cycle;Max_cycle;Signal;HPM_P1;HPM_P2
2023/01/21 00:05:09;;;;;;;9.10;4.30;;;;;;;11.61;63.35;98708.84;275071;1244;24156;-81
2023/01/21 00:11:14;;;;;;;7.70;4.40;;;;;;;12.20;62.57;98711.75;275421;1244;25457;-82
2023/01/21 00:17:16;;;;;;;9.00;4.20;;;;;;;12.03;62.97;98711.48;274766;1243;180918;-82
2023/01/21 00:23:18;;;;;;;6.20;3.80;;;;;;;12.09;62.67;98710.36;275416;1244;22513;-82
2023/01/21 00:29:20;;;;;;;8.40;4.20;;;;;;;12.49;62.05;98708.80;275067;1244;22631;-86
2023/01/21 00:35:21;;;;;;;6.10;3.80;;;;;;;12.92;60.73;98713.15;275291;1241;22582;-85
2023/01/21 00:41:23;;;;;;;7.20;3.90;;;;;;;11.84;62.13;98719.15;275018;1244;22535;-84
2023/01/21 00:47:25;;;;;;;7.80;4.20;;;;;;;12.20;62.15;98714.41;275127;1244;22499;-82
2023/01/21 00:53:27;;;;;;;7.60;4.10;;;;;;;12.58;61.01;98717.20;275119;1244;24229;-82
2023/01/21 00:59:29;;;;;;;7.40;3.80;;;;;;;12.81;60.32;98722.22;275144;1233;22515;-83
2023/01/21 01:05:31;;;;;;;8.20;3.70;;;;;;;12.45;61.03;98732.73;275336;1244;22572;-85
2023/01/21 01:11:32;;;;;;;6.40;3.50;;;;;;;12.48;60.78;98735.68;275110;1231;22514;-85
2023/01/21 01:17:34;;;;;;;7.90;3.60;;;;;;;12.68;60.33;98733.51;275266;1244;22542;-84
2023/01/21 01:23:35;;;;;;;6.30;3.50;;;;;;;-42.90;34.36;59237.99;273753;1244;1002338;-83
2023/01/21 01:29:37;;;;;;;6.00;3.40;;;;;;;13.63;58.03;98724.52;275321;1238;24253;-83
2023/01/21 01:35:48;;;;;;;6.30;3.40;;;;;;;13.95;57.79;98720.20;275284;1244;23684;-81
2023/01/21 01:41:49;;;;;;;6.10;3.40;;;;;;;14.28;56.88;98712.65;275102;1242;22647;-83
2023/01/21 01:47:58;;;;;;;6.00;3.00;;;;;;;13.92;56.64;98705.66;275988;1244;22502;-84
2023/01/21 01:54:05;;;;;;;5.50;3.20;;;;;;;13.37;57.74;98696.27;276541;1244;22492;-83
2023/01/21 02:00:10;;;;;;;6.60;3.90;;;;;;;13.54;57.29;98689.19;275264;1244;24740;-82
2023/01/21 02:06:22;;;;;;;6.50;3.90;;;;;;;13.53;57.17;98690.25;275623;1244;24279;-82
2023/01/21 02:12:23;;;;;;;8.00;4.50;;;;;;;14.91;55.33;98690.47;274842;1244;25303;-82
2023/01/21 02:18:43;;;;;;;6.60;3.30;;;;;;;15.64;53.05;98693.55;275376;1244;22701;-81
2023/01/21 02:25:09;;;;;;;6.60;3.60;;;;;;;14.96;53.76;98691.59;276622;1244;25397;-79
2023/01/21 02:31:22;;;;;;;6.20;3.20;;;;;;;15.05;53.73;98698.16;275109;1241;22527;-83
2023/01/21 02:37:32;;;;;;;5.80;3.00;;;;;;;14.98;53.67;98698.84;274972;1231;22497;-83
2023/01/21 02:43:51;;;;;;;5.00;3.10;;;;;;;14.05;55.05;98694.61;274883;1244;23222;-82
2023/01/21 02:50:27;;;;;;;6.20;3.40;;;;;;;13.99;55.69;98689.36;275710;1244;23169;-85
2023/01/21 02:56:28;;;;;;;;;;;;;;;14.51;54.34;98685.31;276397;1244;22541;-85
2023/01/21 03:02:43;;;;;;;6.70;3.40;;;;;;;14.26;54.70;98686.95;276155;1243;25334;-84
2023/01/21 03:09:01;;;;;;;5.30;3.30;;;;;;;14.02;55.61;98680.84;275602;1244;22553;-82
2023/01/21 03:21:41;;;;;;;5.50;2.80;;;;;;;13.44;56.61;98683.73;275384;1244;22539;-81
2023/01/21 03:27:45;;;;;;;5.30;3.00;;;;;;;13.87;55.97;98684.77;275313;1244;24961;-82
2023/01/21 03:33:48;;;;;;;4.80;2.60;;;;;;;13.87;55.67;98687.09;276245;1244;23382;-82
2023/01/21 03:40:13;;;;;;;5.90;2.90;;;;;;;13.65;55.78;98682.13;276409;1243;25068;-82
2023/01/21 03:46:28;;;;;;;5.00;3.00;;;;;;;14.75;54.32;98686.31;275611;1244;22528;-82
2023/01/21 03:52:30;;;;;;;4.60;2.50;;;;;;;16.70;50.92;98679.09;276450;1244;22593;-85
2023/01/21 03:58:34;;;;;;;5.20;2.70;;;;;;;17.26;49.56;98670.77;276472;1240;22540;-83
2023/01/21 04:04:46;;;;;;;5.50;2.60;;;;;;;16.83;49.62;98676.71;276207;1244;22569;-82
2023/01/21 04:10:47;;;;;;;5.10;2.80;;;;;;;16.20;50.17;98686.42;275533;1244;25337;-84
2023/01/21 04:16:48;;;;;;;4.10;2.40;;;;;;;16.40;50.56;98679.39;275167;1244;22577;-84
2023/01/21 04:22:50;;;;;;;4.00;2.40;;;;;;;16.56;49.67;98676.11;275236;1244;22717;-82
2023/01/21 04:36:21;;;;;;;2.80;2.10;;;;;;;14.83;52.82;98673.39;272846;1254;22579;-83
2023/01/21 04:42:23;;;;;;;3.20;1.60;;;;;;;15.23;51.92;98664.74;272749;1254;22527;-83
2023/01/21 04:48:24;;;;;;;3.60;1.50;;;;;;;15.21;52.24;98664.55;272762;1254;24107;-85
2023/01/21 04:54:26;;;;;;;2.80;1.80;;;;;;;15.36;51.34;98665.77;272562;1254;25349;-84
2023/01/21 05:00:28;;;;;;;2.90;1.50;;;;;;;14.98;52.04;98671.19;273253;1254;23956;-82
2023/01/21 05:06:33;;;;;;;2.20;1.30;;;;;;;14.61;52.35;98679.08;273893;1254;22486;-84
2023/01/21 05:12:34;;;;;;;2.20;1.30;;;;;;;14.41;52.90;98680.52;274792;1244;22593;-85
2023/01/21 05:18:36;;;;;;;3.00;1.60;;;;;;;15.12;51.70;98673.59;275597;1244;22508;-85
2023/01/21 05:24:38;;;;;;;2.10;1.60;;;;;;;14.61;52.01;98676.45;275253;1244;22496;-84
2023/01/21 05:30:39;;;;;;;2.50;1.50;;;;;;;14.25;52.92;98678.45;275030;1244;22555;-83
2023/01/21 05:36:43;;;;;;;2.50;1.30;;;;;;;14.71;52.19;98679.40;275148;1244;23845;-83
2023/01/21 05:42:45;;;;;;;2.00;1.20;;;;;;;14.62;52.08;98678.13;274814;1244;22542;-84
2023/01/21 05:48:49;;;;;;;2.00;1.50;;;;;;;15.47;50.64;98681.77;275023;1241;22528;-82
2023/01/21 05:54:51;;;;;;;2.50;1.40;;;;;;;15.44;50.65;98680.15;274970;1240;22672;-83
2023/01/21 06:01:03;;;;;;;1.90;1.30;;;;;;;15.90;49.73;98672.09;275002;1244;25047;-85
2023/01/21 06:07:05;;;;;;;2.80;1.40;;;;;;;16.03;49.43;98679.17;275088;1242;22948;-84
2023/01/21 06:13:08;;;;;;;2.30;1.40;;;;;;;15.81;49.55;98687.08;274973;1244;22642;-83
2023/01/21 06:19:09;;;;;;;2.30;1.50;;;;;;;16.16;49.16;98688.36;274899;1244;25350;-84
2023/01/21 06:25:11;;;;;;;2.30;1.40;;;;;;;15.75;49.07;98698.89;275117;1244;22521;-82
2023/01/21 06:31:23;;;;;;;3.10;1.40;;;;;;;16.03;49.04;98697.73;275237;1244;22505;-82
2023/01/21 06:37:25;;;;;;;1.70;1.40;;;;;;;16.08;48.86;98706.02;275050;1244;22548;-84
2023/01/21 06:43:26;;;;;;;2.30;1.30;;;;;;;15.28;49.73;98710.79;274973;1244;22492;-82
2023/01/21 06:49:27;;;;;;;2.60;1.80;;;;;;;14.62;50.64;98718.97;275051;1244;22632;-85
2023/01/21 06:55:29;;;;;;;2.60;1.60;;;;;;;15.36;50.40;98725.38;275089;1241;22571;-84
2023/01/21 07:01:31;;;;;;;3.20;1.50;;;;;;;15.88;48.74;98731.90;275024;1244;23835;-83
2023/01/21 07:07:34;;;;;;;3.50;1.40;;;;;;;14.70;50.81;98741.42;274952;1244;24261;-83
2023/01/21 07:13:36;;;;;;;1.60;1.10;;;;;;;16.10;48.63;98743.54;275417;1241;24179;-83
2023/01/21 07:19:40;;;;;;;2.40;1.40;;;;;;;15.47;49.38;98752.17;274999;1244;22524;-83
2023/01/21 07:25:42;;;;;;;2.20;1.70;;;;;;;14.93;51.09;98758.79;275140;1244;22707;-84
2023/01/21 07:31:43;;;;;;;2.70;1.60;;;;;;;15.92;50.51;98756.89;275663;1234;22554;-80
2023/01/21 07:37:45;;;;;;;3.30;2.10;;;;;;;16.81;49.24;98762.06;276624;1244;25473;-80
2023/01/21 07:43:50;;;;;;;3.50;1.70;;;;;;;17.10;48.83;98767.52;275757;1241;22598;-81
2023/01/21 07:49:52;;;;;;;2.60;1.70;;;;;;;17.63;47.95;98776.45;276505;1244;23130;-81
2023/01/21 07:55:54;;;;;;;3.30;2.00;;;;;;;17.39;48.00;98778.70;276585;1244;23230;-81
2023/01/21 08:02:16;;;;;;;3.60;2.00;;;;;;;17.94;47.17;98781.20;276832;1234;24178;-81
2023/01/21 08:08:29;;;;;;;3.10;1.90;;;;;;;17.93;47.31;98784.20;276676;1244;24350;-80
2023/01/21 08:14:34;;;;;;;5.60;2.10;;;;;;;18.61;46.18;98787.33;276353;1244;23884;-81
2023/01/21 08:20:36;;;;;;;3.40;2.20;;;;;;;19.01;45.39;98793.15;276207;1244;24326;-80
2023/01/21 08:26:55;;;;;;;3.50;2.10;;;;;;;18.33;46.11;98796.80;276437;1244;22547;-81
2023/01/21 08:32:57;;;;;;;3.40;2.10;;;;;;;18.05;46.81;98791.44;276392;1244;22499;-81
2023/01/21 08:39:04;;;;;;;2.80;2.10;;;;;;;17.49;47.09;98801.39;276120;1244;22599;-82
2023/01/21 08:45:16;;;;;;;3.20;2.10;;;;;;;18.20;47.02;98795.05;275160;1244;24179;-80
2023/01/21 08:51:18;;;;;;;4.10;2.40;;;;;;;18.34;46.49;98813.78;275163;1232;24214;-79
2023/01/21 08:57:20;;;;;;;4.70;2.50;;;;;;;17.98;47.01;98821.27;275071;1244;25462;-80
2023/01/21 09:03:22;;;;;;;3.90;2.50;;;;;;;18.04;46.58;98829.52;275108;1244;26538;-79
2023/01/21 09:09:23;;;;;;;5.80;2.80;;;;;;;18.10;46.96;98842.10;275105;1241;23133;-79
2023/01/21 09:15:25;;;;;;;3.40;2.20;;;;;;;18.30;46.58;98843.23;275135;1244;24213;-81
2023/01/21 09:21:28;;;;;;;4.30;2.60;;;;;;;18.93;45.70;98843.58;274990;1244;25448;-79
2023/01/21 09:27:29;;;;;;;4.30;2.80;;;;;;;18.26;46.59;98849.70;275108;1244;22552;-79
2023/01/21 09:33:32;;;;;;;3.70;2.90;;;;;;;18.31;46.46;98849.27;275106;1244;22513;-79
2023/01/21 09:39:35;;;;;;;4.10;2.80;;;;;;;18.29;46.66;98859.90;274995;1244;22529;-81
2023/01/21 09:45:37;;;;;;;4.90;3.20;;;;;;;18.49;46.29;98857.46;275082;1244;23980;-78
2023/01/21 09:51:50;;;;;;;6.60;4.10;;;;;;;18.87;45.81;98852.20;275246;1244;24047;-85
2023/01/21 09:58:14;;;;;;;8.70;5.10;;;;;;;18.70;46.28;98864.48;275085;1244;22508;-84
2023/01/21 10:04:38;;;;;;;10.20;6.10;;;;;;;18.60;46.53;98872.45;275273;1244;23144;-83
2023/01/21 10:10:50;;;;;;;8.70;5.70;;;;;;;18.17;47.17;98883.55;275133;1244;22510;-85
2023/01/21 10:17:10;;;;;;;10.80;6.10;;;;;;;18.32;46.78;98878.20;275429;1228;22582;-81
2023/01/21 10:23:23;;;;;;;10.30;6.40;;;;;;;18.40;46.75;98875.47;275210;1244;24683;-83
2023/01/21 10:29:26;;;;;;;11.00;6.80;;;;;;;18.45;46.72;98878.64;275269;1236;22568;-79
2023/01/21 10:35:40;;;;;;;11.50;7.00;;;;;;;18.76;45.91;98874.94;275306;1244;24016;-84
2023/01/21 10:41:48;;;;;;;10.90;7.40;;;;;;;18.95;45.70;98877.55;275132;1244;24198;-85
2023/01/21 10:48:26;;;;;;;10.70;7.10;;;;;;;19.28;45.04;98877.92;275407;1244;24163;-83
2023/01/21 10:54:40;;;;;;;12.00;7.70;;;;;;;19.46;45.05;98872.06;275625;1244;22614;-82
2023/01/21 11:00:46;;;;;;;10.80;7.50;;;;;;;19.30;45.32;98877.75;275603;1233;23281;-82
2023/01/21 11:07:08;;;;;;;11.90;7.40;;;;;;;19.47;45.11;98880.23;275441;1244;24249;-82
2023/01/21 11:13:12;;;;;;;10.60;7.30;;;;;;;19.29;45.27;98876.04;275056;1244;22565;-79
2023/01/21 11:19:32;;;;;;;12.00;8.10;;;;;;;19.47;45.18;98881.48;274863;1244;25320;-78
2023/01/21 11:25:40;;;;;;;13.30;7.80;;;;;;;19.84;45.06;98890.48;274988;1244;24096;-78
2023/01/21 11:31:44;;;;;;;11.70;8.20;;;;;;;19.96;44.74;98887.63;274878;1244;22545;-80
2023/01/21 11:37:45;;;;;;;13.90;8.10;;;;;;;20.08;44.65;98882.61;275094;1244;22577;-86
2023/01/21 11:43:50;;;;;;;14.00;8.70;;;;;;;20.07;44.44;98875.63;275144;1244;24241;-86
2023/01/21 11:49:52;;;;;;;13.50;8.40;;;;;;;19.80;44.90;98884.88;275167;1244;23928;-86
2023/01/21 11:55:56;;;;;;;11.40;8.40;;;;;;;19.85;44.39;98887.38;275116;1244;22524;-86
2023/01/21 12:02:41;;;;;;;12.00;8.40;;;;;;;19.90;44.24;98889.15;275146;1244;24725;-92
2023/01/21 12:08:47;;;;;;;13.40;8.30;;;;;;;19.64;45.27;98893.03;276517;1244;25523;-85
2023/01/21 12:14:58;;;;;;;12.60;8.00;;;;;;;19.59;45.49;98896.81;274676;1244;22627;-84
2023/01/21 12:21:05;;;;;;;13.50;8.40;;;;;;;19.83;44.98;98898.48;275334;1244;139674;-86
2023/01/21 12:27:26;;;;;;;12.60;8.40;;;;;;;20.07;44.47;98904.96;275444;1244;23254;-85
2023/01/21 12:33:30;;;;;;;13.10;8.30;;;;;;;19.48;45.29;98912.88;275465;1244;22493;-86
2023/01/21 12:39:35;;;;;;;14.00;9.00;;;;;;;19.57;44.77;98922.67;275000;1244;23114;-86
2023/01/21 12:45:44;;;;;;;13.40;8.20;;;;;;;19.74;44.25;98934.12;276046;1244;24555;-86
2023/01/21 12:52:29;;;;;;;12.20;8.50;;;;;;;19.65;44.29;98944.55;276621;1244;22813;-86
2023/01/21 12:58:35;;;;;;;15.20;8.90;;;;;;;19.74;44.40;98954.48;276398;1244;22581;-88
2023/01/21 13:05:08;;;;;;;11.80;7.80;;;;;;;19.74;43.92;98959.65;276471;1242;22510;-88
2023/01/21 13:11:17;;;;;;;11.30;7.70;;;;;;;19.47;44.19;98975.27;276570;1244;25264;-82
2023/01/21 13:17:26;;;;;;;14.70;8.90;;;;;;;19.55;43.93;98988.91;276321;1244;22570;-81
2023/01/21 13:23:38;;;;;;;15.00;8.40;;;;;;;19.40;44.24;98995.75;276416;1244;24263;-80
2023/01/21 13:30:09;;;;;;;14.90;8.40;;;;;;;19.04;44.73;99008.07;276367;1244;22542;-81
2023/01/21 13:36:14;;;;;;;14.90;8.10;;;;;;;19.06;44.78;99014.53;276296;1244;23682;-81
2023/01/21 13:42:47;;;;;;;12.10;8.00;;;;;;;19.22;44.12;99020.86;276938;1244;22550;-82
2023/01/21 13:49:32;;;;;;;14.40;7.80;;;;;;;18.80;44.51;99024.08;276844;1244;24189;-83
2023/01/21 13:56:10;;;;;;;11.40;6.90;;;;;;;18.51;45.32;99029.16;276312;1244;22502;-82
2023/01/21 14:02:21;;;;;;;10.50;7.30;;;;;;;18.40;44.75;99030.12;276420;1244;22501;-84
2023/01/21 14:08:31;;;;;;;13.40;8.10;;;;;;;18.17;45.16;99031.95;276698;1244;22907;-84
2023/01/21 14:14:59;;;;;;;13.90;8.50;;;;;;;18.00;45.72;99042.25;276577;1240;22530;-82
2023/01/21 14:21:20;;;;;;;13.80;8.90;;;;;;;17.67;46.46;99055.63;276900;1244;23177;-80
2023/01/21 14:27:36;;;;;;;14.50;8.80;;;;;;;17.89;45.93;99057.45;275843;1244;22475;-85
2023/01/21 14:33:58;;;;;;;13.00;8.30;;;;;;;17.99;45.63;99070.13;276030;1241;23058;-83
2023/01/21 14:40:22;;;;;;;14.30;8.60;;;;;;;17.92;45.37;99077.38;276787;1244;23007;-85
2023/01/21 14:46:31;;;;;;;13.80;8.50;;;;;;;17.87;45.61;99090.23;275233;1244;22574;-85
2023/01/21 14:52:38;;;;;;;14.10;8.60;;;;;;;17.69;46.12;99101.45;275838;1244;22542;-84
2023/01/21 14:58:44;;;;;;;13.80;8.50;;;;;;;17.57;46.42;99122.63;275323;1244;22530;-83
2023/01/21 15:05:20;;;;;;;16.30;9.40;;;;;;;17.44;46.37;99138.33;276439;1231;23238;-83
2023/01/21 15:11:36;;;;;;;14.60;9.00;;;;;;;17.49;46.44;99148.86;275260;1244;22505;-83
2023/01/21 15:17:52;;;;;;;15.30;9.10;;;;;;;17.51;46.36;99165.59;275758;1244;22513;-83
2023/01/21 15:24:13;;;;;;;14.40;8.90;;;;;;;17.21;47.02;99172.70;275486;1244;22568;-82
2023/01/21 15:30:14;;;;;;;17.10;10.10;;;;;;;17.07;47.31;99182.72;275291;1244;22691;-82
2023/01/21 15:36:19;;;;;;;16.80;10.00;;;;;;;17.30;46.98;99191.32;275412;1244;22532;-83
2023/01/21 15:42:29;;;;;;;18.60;10.60;;;;;;;17.14;47.30;99199.85;275541;1244;23284;-83
2023/01/21 15:49:04;;;;;;;17.80;10.60;;;;;;;16.99;47.40;99210.24;276745;1244;22546;-84
2023/01/21 15:55:34;;;;;;;19.20;11.00;;;;;;;16.77;47.76;99216.02;276072;1243;25523;-84
2023/01/21 16:01:38;;;;;;;17.20;10.50;;;;;;;16.81;47.90;99224.64;275773;1244;24164;-83
2023/01/21 16:07:54;;;;;;;19.60;11.70;;;;;;;17.00;47.59;99227.09;276691;1241;22532;-83
2023/01/21 16:14:10;;;;;;;18.20;11.10;;;;;;;17.05;47.64;99234.88;275308;1244;24194;-83
2023/01/21 16:20:16;;;;;;;19.90;11.90;;;;;;;17.12;47.44;99237.02;276801;1244;26161;-84
2023/01/21 16:26:30;;;;;;;23.50;12.30;;;;;;;16.81;47.48;99245.39;276948;1244;25365;-80
2023/01/21 16:32:37;;;;;;;22.30;11.50;;;;;;;16.16;48.69;99255.90;275576;1244;23288;-84
2023/01/21 16:38:40;;;;;;;18.40;10.50;;;;;;;16.64;47.63;99252.23;276207;1244;22525;-81
2023/01/21 16:44:42;;;;;;;18.30;11.50;;;;;;;16.84;47.52;99255.06;275392;1244;25448;-82
2023/01/21 16:50:46;;;;;;;20.60;12.00;;;;;;;17.00;47.09;99265.55;275478;1233;22670;-81
2023/01/21 16:57:00;;;;;;;20.30;11.80;;;;;;;17.01;47.45;99268.48;275230;1242;24206;-81
2023/01/21 17:03:03;;;;;;;18.70;11.20;;;;;;;16.29;48.07;99272.95;275410;1241;22580;-82
2023/01/21 17:09:25;;;;;;;17.80;10.70;;;;;;;14.79;50.55;99270.48;275351;1234;24146;-82
2023/01/21 17:15:34;;;;;;;18.50;11.50;;;;;;;16.49;48.00;99278.90;275037;1230;24178;-83
2023/01/21 17:21:45;;;;;;;18.80;11.50;;;;;;;16.92;47.16;99284.63;275247;1244;22685;-83
2023/01/21 17:27:54;;;;;;;21.50;11.90;;;;;;;16.84;47.60;99301.17;275529;1243;22529;-83
2023/01/21 17:34:18;;;;;;;23.40;13.60;;;;;;;16.58;48.12;99313.83;276576;1244;25352;-83
2023/01/21 17:40:24;;;;;;;19.10;12.30;;;;;;;16.58;48.21;99333.91;275335;1244;23345;-82
2023/01/21 17:46:26;;;;;;;22.20;13.20;;;;;;;16.43;48.48;99343.55;275284;1244;22775;-82
2023/01/21 17:52:29;;;;;;;24.60;13.70;;;;;;;16.53;48.34;99343.49;275269;1244;22502;-82
2023/01/21 17:58:30;;;;;;;21.90;12.80;;;;;;;16.73;48.02;99350.21;275427;1244;24266;-81
2023/01/21 18:04:32;;;;;;;20.70;12.50;;;;;;;16.47;48.54;99363.59;275933;1244;24257;-81
2023/01/21 18:10:36;;;;;;;22.00;13.30;;;;;;;16.46;48.65;99375.90;275382;1244;25289;-84
2023/01/21 18:16:43;;;;;;;20.80;12.20;;;;;;;17.07;47.62;99379.27;276361;1241;26059;-88
2023/01/21 18:22:46;;;;;;;20.40;12.40;;;;;;;16.91;47.56;99383.38;276081;1240;22587;-80
2023/01/21 18:28:52;;;;;;;22.70;13.50;;;;;;;17.00;47.14;99388.51;275066;1244;22541;-82
2023/01/21 18:34:54;;;;;;;22.20;12.80;;;;;;;16.71;47.84;99392.80;275259;1244;22553;-81
2023/01/21 18:40:56;;;;;;;22.30;12.80;;;;;;;16.77;48.16;99405.67;275385;1244;22660;-80
2023/01/21 18:46:58;;;;;;;20.60;12.40;;;;;;;16.80;47.99;99408.84;275419;1244;23035;-85
2023/01/21 18:53:08;;;;;;;20.50;12.30;;;;;;;16.65;48.18;99413.98;276661;1244;22492;-85
2023/01/21 18:59:16;;;;;;;21.60;12.00;;;;;;;16.38;48.76;99423.93;275411;1244;22539;-83
2023/01/21 19:05:47;;;;;;;19.50;11.50;;;;;;;16.43;48.65;99426.08;276296;1244;24237;-84
2023/01/21 19:12:28;;;;;;;22.40;12.40;;;;;;;16.56;48.36;99428.17;276262;1244;25386;-85
2023/01/21 19:19:00;;;;;;;21.30;13.30;;;;;;;16.82;48.00;99436.33;276232;1244;22505;-84
2023/01/21 19:25:07;;;;;;;23.80;13.20;;;;;;;16.91;48.06;99445.50;274923;1244;22519;-82
2023/01/21 19:31:08;;;;;;;22.80;13.20;;;;;;;17.34;47.42;99458.44;274940;1236;22509;-82
2023/01/21 19:37:15;;;;;;;21.40;12.70;;;;;;;17.10;47.74;99469.04;274848;1244;22498;-82
2023/01/21 19:43:20;;;;;;;;;;;;;;;16.88;47.99;99469.61;275313;1244;23297;-82
2023/01/21 19:49:24;;;;;;;22.10;12.70;;;;;;;16.90;48.01;99481.12;275221;1244;25456;-82
2023/01/21 19:55:26;;;;;;;24.30;13.60;;;;;;;16.85;48.05;99489.40;275180;1244;22532;-83
2023/01/21 20:01:31;;;;;;;26.00;14.60;;;;;;;16.75;48.19;99500.04;274951;1244;22494;-84
2023/01/21 20:07:38;;;;;;;24.40;14.40;;;;;;;16.75;48.45;99501.98;275463;1243;22503;-84
2023/01/21 20:13:41;;;;;;;26.20;15.20;;;;;;;16.79;48.08;99510.33;275184;1234;22623;-82
2023/01/21 20:20:19;;;;;;;27.00;15.40;;;;;;;16.77;48.09;99516.17;275434;1242;26559;-86
2023/01/21 20:26:25;;;;;;;26.80;14.70;;;;;;;16.74;48.14;99519.08;275559;1244;24128;-83
2023/01/21 20:32:27;;;;;;;28.90;15.40;;;;;;;16.51;48.38;99535.23;276472;1244;24011;-86
2023/01/21 20:38:34;;;;;;;38.70;21.30;;;;;;;16.40;48.55;99540.73;276326;1237;22662;-83
2023/01/21 20:44:41;;;;;;;43.60;23.80;;;;;;;15.64;49.49;99543.48;275988;1244;23839;-91
2023/01/21 20:50:42;;;;;;;53.00;27.60;;;;;;;15.63;49.55;99554.15;275435;1243;22497;-80
2023/01/21 20:56:44;;;;;;;48.20;25.70;;;;;;;15.68;49.29;99549.94;275626;1244;22498;-82
2023/01/21 21:03:08;;;;;;;49.40;25.50;;;;;;;15.80;49.18;99566.14;276107;1244;22505;-86
2023/01/21 21:09:22;;;;;;;46.30;24.60;;;;;;;16.06;48.82;99572.37;276680;1244;23894;-87
2023/01/21 21:16:32;;;;;;;45.30;23.90;;;;;;;15.04;50.43;99575.18;276970;1244;25634;-85
2023/01/21 21:22:40;;;;;;;44.10;21.70;;;;;;;15.68;49.37;99572.70;276920;1244;22580;-86
2023/01/21 21:28:44;;;;;;;44.40;22.40;;;;;;;16.01;48.96;99582.30;276583;1244;25320;-82
2023/01/21 21:34:45;;;;;;;39.50;21.00;;;;;;;16.15;48.53;99585.45;276024;1244;22497;-83
2023/01/21 21:40:51;;;;;;;40.80;21.40;;;;;;;16.38;48.00;99591.89;276827;1244;22582;-84
2023/01/21 21:53:20;;;;;;;40.00;20.60;;;;;;;15.82;49.06;99597.38;276620;1244;25317;-83
2023/01/21 21:59:34;;;;;;;40.30;20.20;;;;;;;15.70;49.13;99599.14;276487;1244;23314;-82
2023/01/21 22:05:36;;;;;;;39.90;20.70;;;;;;;15.72;49.08;99605.98;276598;1243;22551;-91
2023/01/21 22:11:39;;;;;;;41.00;21.90;;;;;;;15.05;50.36;99604.42;276428;1244;22581;-83
2023/01/21 22:17:51;;;;;;;41.80;21.70;;;;;;;14.68;51.19;99613.58;276301;1244;22496;-83
2023/01/21 22:23:59;;;;;;;39.80;20.80;;;;;;;14.76;51.25;99618.35;276183;1244;22536;-82
2023/01/21 22:30:12;;;;;;;36.50;19.10;;;;;;;14.39;51.76;99615.75;276170;1244;25387;-82
2023/01/21 22:36:17;;;;;;;;;;;;;;;14.49;51.70;99622.91;276342;1244;24094;-84
2023/01/21 22:42:32;;;;;;;35.90;19.30;;;;;;;14.20;52.28;99629.24;276547;1244;24709;-84
2023/01/21 22:48:51;;;;;;;39.60;19.80;;;;;;;14.52;51.59;99626.55;276287;1244;22857;-84
2023/01/21 22:55:04;;;;;;;37.40;18.60;;;;;;;14.77;51.10;99632.13;276375;1244;22504;-84
2023/01/21 23:01:29;;;;;;;38.60;20.20;;;;;;;14.81;50.98;99631.86;276175;1244;25459;-84
2023/01/21 23:07:52;;;;;;;40.70;21.10;;;;;;;14.77;51.09;99636.02;275512;1245;22555;-84
2023/01/21 23:13:57;;;;;;;39.70;19.50;;;;;;;14.42;51.56;99630.63;275665;1246;24949;-83
2023/01/21 23:20:02;;;;;;;37.50;19.20;;;;;;;14.97;50.74;99632.60;275859;1243;23339;-83
2023/01/21 23:26:05;;;;;;;36.00;19.20;;;;;;;14.92;50.41;99634.80;275929;1246;22553;-85
2023/01/21 23:32:23;;;;;;;37.80;19.00;;;;;;;14.51;51.17;99640.68;275942;1246;24204;-85
2023/01/21 23:38:33;;;;;;;34.50;18.00;;;;;;;14.43;51.26;99643.46;275693;1246;22577;-85
2023/01/21 23:44:38;;;;;;;33.80;17.30;;;;;;;14.23;51.39;99651.79;275558;1243;22609;-85
2023/01/21 23:51:03;;;;;;;33.60;17.10;;;;;;;14.10;51.44;99656.95;275701;1243;22505;-85
2023/01/21 23:57:10;;;;;;;33.40;16.20;;;;;;;14.61;50.47;99671.52;275793;1246;23189;-83
